Dyess Air Force Base
KDYS : now visible

Airfield :











YOU CAN JOIN US ON...

 
LOGIN :

Register | Disclaimer

   EN    FR    IT 

 









Legend :    VFR   Marginal VFR   IFR   Intensive IFR   Very Intensive IFR
Visi :
Ceiling :
>= 8 km
>= 3000ft
5 to 8 km
1000 to 3000 ft
1500m to 5 km
500 to 1000 ft
800 to 1500m
200 to 500 ft
< 800m
< 200 ft
Symbols :   Thunderstorms  Fog  Heavy snow  Heavy precipitations  Wind > 20 kt






- Airport Elevation : 1789 ft


KDYS - Dyess Air Force Base

CURRENT METAR :
  • 291556Z AUTO 33018KT 10SM OVC024 09/02 A3020 RMK AO2 PK WND 33026/32 SLP227 T00890020 $

EXPIRED METARs :
  • 291456Z AUTO 33018KT 10SM BKN025 BKN030 08/02 A3017 RMK AO2 SLP219 T00810017 52040 $
  • 291411Z AUTO 33018G24KT 10SM BKN022 OVC029 07/01 A3015 RMK AO2 SLP212 $
  • 291356Z AUTO 34017G24KT 10SM OVC020 07/01 A3013 RMK AO2 PK WND 33028/27 PRESRR SLP206 T00660009 $
  • 291311Z AUTO 34021G26KT 10SM OVC020 06/01 A3008 RMK AO2 SLP188 $

TAF AMD TAF KDYS
Valid from the 29 at 12:00 until the 30 at 14:00 UTC


291250Z 2912/3014 33015G25KT 9999 OVC020 530053 QNH3001INS
BECMG 2915/2916 33015G25KT 9999 SCT020 OVC050 530053 QNH3012INS
BECMG 2919/2920 34012KT 9999 FEW025 QNH3018INS
BECMG 3001/3002 VRB06KT 9999 SKC QNH3023INS TX14/2922Z TN03/3008Z
KZFW FIR / North America



MET'MAP, your aeronautical weather chart ! - Copyright ORBIFLY December 2007 - Disclaimer

ORBIFLY MET'MAP TEAM :

Programming & Development : Alexandra Zaïnal
Concept & original design : Baudouin d'Aumeries
Assistance for programming : Marc-Olivier Méhu
Technical & hardware support : Manuel Goepfert

Contact : metmap@orbifly.com




SOURCES & CREDITS :

   NOAA       Earth
Advisory